Time;durP1;ratioP1;P1;durP2;ratioP2;P2;SDS_P1;SDS_P2;PMS_P1;PMS_P2;Temp;Humidity;BMP_temperature;BMP_pressure;BME280_temperature;BME280_humidity;BME280_pressure;Samples;Min_cycle;Max_cycle;Signal;HPM_P1;HPM_P2
2023/08/19 00:00:20;;;;;;;29.20;23.60;;;;;23.00;100610.00;;;;10239096;28;20365;-77
2023/08/19 00:05:21;;;;;;;27.10;23.67;;;;;23.00;100605.00;;;;10238935;28;20223;-78
2023/08/19 00:10:23;;;;;;;30.08;23.00;;;;;22.90;100612.00;;;;10259429;28;20225;-78
2023/08/19 00:15:24;;;;;;;29.23;22.50;;;;;22.90;100601.00;;;;10257708;28;21226;-78
2023/08/19 00:20:28;;;;;;;25.83;22.83;;;;;22.90;100598.00;;;;10238722;28;20259;-78
2023/08/19 00:25:29;;;;;;;25.88;22.02;;;;;22.90;100602.00;;;;10257825;28;20660;-77
2023/08/19 00:30:30;;;;;;;25.83;21.13;;;;;22.80;100597.00;;;;10255903;28;20369;-77
2023/08/19 00:35:32;;;;;;;24.92;21.00;;;;;22.80;100593.00;;;;10256767;28;20223;-78
2023/08/19 00:40:33;;;;;;;25.35;20.27;;;;;22.80;100590.00;;;;10240961;28;20206;-77
2023/08/19 00:45:44;;;;;;;23.77;19.48;;;;;22.80;100587.00;;;;10256969;28;20809;-78
2023/08/19 00:50:46;;;;;;;24.35;18.73;;;;;22.80;100583.00;;;;10256063;28;20208;-78
2023/08/19 00:55:49;;;;;;;21.23;19.02;;;;;22.80;100577.00;;;;10241793;28;20515;-77
2023/08/19 01:00:50;;;;;;;21.33;19.05;;;;;22.80;100573.00;;;;10262058;28;20207;-77
2023/08/19 01:06:00;;;;;;;20.10;18.00;;;;;22.80;100562.00;;;;10263573;28;20246;-77
2023/08/19 01:11:12;;;;;;;21.20;17.33;;;;;22.80;100551.00;;;;10247331;28;20208;-77
2023/08/19 01:16:20;;;;;;;18.58;16.55;;;;;22.80;100548.00;;;;10262564;28;20902;-78
2023/08/19 01:21:23;;;;;;;17.13;15.13;;;;;22.80;100543.00;;;;10228350;28;20547;-77
2023/08/19 01:26:25;;;;;;;16.85;14.57;;;;;22.80;100550.00;;;;10261627;28;21835;-77
2023/08/19 01:31:26;;;;;;;15.60;13.80;;;;;22.80;100545.00;;;;10259639;28;20418;-77
2023/08/19 01:36:34;;;;;;;15.48;13.70;;;;;22.80;100542.00;;;;10243226;28;20923;-77
2023/08/19 01:41:37;;;;;;;14.63;13.15;;;;;22.70;100529.00;;;;10243225;28;20211;-77
2023/08/19 01:46:38;;;;;;;12.90;11.55;;;;;22.70;100524.00;;;;10244663;28;20285;-78
2023/08/19 01:51:39;;;;;;;15.63;12.05;;;;;22.70;100530.00;;;;10260901;28;20308;-77
2023/08/19 01:56:41;;;;;;;15.23;10.70;;;;;22.70;100526.00;;;;10226349;28;20665;-78
2023/08/19 02:01:42;;;;;;;11.93;10.85;;;;;22.80;100538.00;;;;10259707;28;21264;-77
2023/08/19 02:06:43;;;;;;;13.68;10.95;;;;;22.80;100524.00;;;;10261395;28;20258;-78
2023/08/19 02:11:44;;;;;;;13.00;9.77;;;;;22.70;100514.00;;;;10226973;28;20215;-78
2023/08/19 02:16:46;;;;;;;11.32;9.20;;;;;22.70;100526.00;;;;10224925;28;20211;-77
2023/08/19 02:21:47;;;;;;;9.80;8.80;;;;;22.70;100528.00;;;;10241666;28;20790;-78
2023/08/19 02:26:49;;;;;;;9.88;8.30;;;;;22.80;100508.00;;;;10259478;28;20274;-77
2023/08/19 02:31:50;;;;;;;10.85;7.28;;;;;23.00;100501.00;;;;10258973;28;20269;-77
2023/08/19 02:36:52;;;;;;;9.57;6.57;;;;;23.20;100505.00;;;;10259030;28;20211;-78
2023/08/19 02:41:53;;;;;;;6.88;6.22;;;;;23.40;100497.00;;;;10243749;28;20211;-78
2023/08/19 02:46:55;;;;;;;10.18;7.00;;;;;23.50;100506.00;;;;10242581;28;20231;-78
2023/08/19 02:51:56;;;;;;;12.35;6.93;;;;;23.50;100507.00;;;;10242821;28;20214;-78
2023/08/19 02:56:57;;;;;;;9.27;6.72;;;;;23.50;100512.00;;;;10241663;28;20211;-78
2023/08/19 03:01:58;;;;;;;7.25;6.50;;;;;23.50;100515.00;;;;10242471;28;20203;-78
2023/08/19 03:07:00;;;;;;;11.23;7.10;;;;;23.50;100519.00;;;;10259615;28;20250;-77
2023/08/19 03:12:01;;;;;;;8.52;6.18;;;;;23.50;100514.00;;;;10242841;28;20242;-79
2023/08/19 03:17:03;;;;;;;10.30;6.82;;;;;23.60;100505.00;;;;10256256;28;20215;-78
2023/08/19 03:22:05;;;;;;;8.75;6.07;;;;;23.70;100506.00;;;;10237815;28;20287;-78
2023/08/19 03:27:06;;;;;;;9.65;6.32;;;;;23.80;100511.00;;;;10233238;28;20270;-78
2023/08/19 03:32:07;;;;;;;8.90;6.47;;;;;23.80;100512.00;;;;10240004;28;20207;-78
2023/08/19 03:37:09;;;;;;;6.95;5.70;;;;;23.80;100505.00;;;;10241553;28;20769;-78
2023/08/19 03:42:10;;;;;;;6.90;5.80;;;;;23.90;100497.00;;;;10259616;28;20213;-78
2023/08/19 03:47:12;;;;;;;9.63;6.05;;;;;23.90;100496.00;;;;10224109;28;20227;-77
2023/08/19 03:52:15;;;;;;;5.85;5.20;;;;;23.90;100498.00;;;;10257833;28;20215;-78
2023/08/19 03:57:16;;;;;;;9.18;6.32;;;;;23.80;100512.00;;;;10238448;28;20254;-78
2023/08/19 04:02:17;;;;;;;8.70;6.60;;;;;23.60;100516.00;;;;10256866;28;20211;-78
2023/08/19 04:07:19;;;;;;;7.32;6.22;;;;;23.40;100524.00;;;;10255124;28;20250;-78
2023/08/19 04:12:20;;;;;;;9.50;6.40;;;;;23.40;100529.00;;;;10255762;28;21326;-78
2023/08/19 04:17:21;;;;;;;11.88;6.50;;;;;23.40;100524.00;;;;10238883;28;20261;-77
2023/08/19 04:22:23;;;;;;;7.35;6.38;;;;;23.40;100529.00;;;;10240711;28;20225;-77
2023/08/19 04:27:24;;;;;;;13.88;6.53;;;;;23.50;100535.00;;;;10222869;28;20701;-78
2023/08/19 04:32:27;;;;;;;8.70;6.05;;;;;23.50;100535.00;;;;10243323;28;21634;-78
2023/08/19 04:37:29;;;;;;;6.35;5.72;;;;;23.50;100542.00;;;;10230534;28;20358;-77
2023/08/19 04:42:31;;;;;;;6.72;5.90;;;;;23.60;100535.00;;;;10248239;28;20539;-77
2023/08/19 04:47:36;;;;;;;9.90;5.95;;;;;23.70;100534.00;;;;10246480;28;20364;-77
2023/08/19 04:52:38;;;;;;;6.68;6.07;;;;;23.80;100551.00;;;;10247225;28;20854;-78
2023/08/19 04:57:42;;;;;;;8.05;5.65;;;;;23.80;100541.00;;;;10263805;28;20254;-77
2023/08/19 05:02:44;;;;;;;10.95;6.50;;;;;23.80;100550.00;;;;10260076;28;20835;-77
2023/08/19 05:07:46;;;;;;;6.00;5.47;;;;;23.80;100556.00;;;;10265096;28;20231;-78
2023/08/19 05:12:48;;;;;;;11.05;5.72;;;;;23.80;100558.00;;;;10265321;28;20452;-78
2023/08/19 05:17:49;;;;;;;11.52;5.85;;;;;23.90;100577.00;;;;10262201;28;21576;-78
2023/08/19 05:22:50;;;;;;;7.35;5.45;;;;;23.90;100580.00;;;;10263557;28;20207;-77
2023/08/19 05:27:52;;;;;;;8.43;5.88;;;;;24.00;100598.00;;;;10263830;28;20361;-78
2023/08/19 05:32:54;;;;;;;7.75;5.63;;;;;24.00;100599.00;;;;10262452;28;21880;-77
2023/08/19 05:37:55;;;;;;;7.05;5.57;;;;;24.20;100601.00;;;;10244020;28;20207;-77
2023/08/19 05:42:56;;;;;;;7.03;5.97;;;;;24.40;100598.00;;;;10260032;28;20945;-78
2023/08/19 05:47:58;;;;;;;6.90;5.68;;;;;24.60;100600.00;;;;10260443;28;21757;-78
2023/08/19 05:52:59;;;;;;;12.45;5.57;;;;;24.70;100612.00;;;;10258912;28;20218;-78
2023/08/19 05:58:00;;;;;;;7.25;5.50;;;;;24.80;100628.00;;;;10261204;28;20261;-78
2023/08/19 06:03:02;;;;;;;5.95;4.97;;;;;24.80;100633.00;;;;10242287;28;20199;-78
2023/08/19 06:08:04;;;;;;;8.18;5.22;;;;;24.90;100634.00;;;;10263766;28;20241;-78
2023/08/19 06:13:05;;;;;;;6.97;5.38;;;;;24.90;100636.00;;;;10244818;28;21560;-78
2023/08/19 06:18:06;;;;;;;7.30;5.15;;;;;25.00;100651.00;;;;10227274;28;20629;-78
2023/08/19 06:23:08;;;;;;;7.35;5.28;;;;;25.00;100665.00;;;;10244352;28;20204;-78
2023/08/19 06:28:09;;;;;;;9.45;5.68;;;;;25.10;100675.00;;;;10262669;28;20250;-78
2023/08/19 06:33:12;;;;;;;6.15;5.53;;;;;25.10;100682.00;;;;10243542;28;20298;-78
2023/08/19 06:38:23;;;;;;;8.55;5.35;;;;;25.20;100707.00;;;;10262573;28;20196;-78
2023/08/19 06:43:29;;;;;;;8.30;5.95;;;;;25.10;100685.00;;;;10262091;28;20288;-79
2023/08/19 06:48:31;;;;;;;7.95;6.95;;;;;25.30;100681.00;;;;10241909;28;20207;-78
2023/08/19 06:53:33;;;;;;;10.73;6.78;;;;;25.60;100708.00;;;;10243604;28;20274;-78
2023/08/19 06:58:41;;;;;;;7.10;6.07;;;;;25.90;100719.00;;;;10243372;28;20215;-78
2023/08/19 07:03:42;;;;;;;7.50;6.72;;;;;26.00;100733.00;;;;10261132;28;20230;-78
2023/08/19 07:08:45;;;;;;;10.15;6.00;;;;;25.80;100719.00;;;;10262079;28;20305;-78
2023/08/19 07:13:46;;;;;;;9.15;6.47;;;;;25.90;100721.00;;;;10260496;28;20207;-78
2023/08/19 07:18:53;;;;;;;9.40;6.63;;;;;26.10;100741.00;;;;10260495;28;20288;-78
2023/08/19 07:23:58;;;;;;;11.63;6.72;;;;;26.30;100747.00;;;;10243323;28;20225;-78
2023/08/19 07:28:59;;;;;;;9.02;5.88;;;;;26.50;100763.00;;;;10261777;28;20218;-78
2023/08/19 07:34:01;;;;;;;9.25;6.20;;;;;26.70;100776.00;;;;10259984;28;20608;-79
2023/08/19 07:39:04;;;;;;;7.82;6.28;;;;;26.70;100783.00;;;;10244624;28;21294;-78
2023/08/19 07:44:05;;;;;;;8.38;6.47;;;;;26.70;100792.00;;;;10261210;28;21952;-78
2023/08/19 07:49:06;;;;;;;9.80;6.72;;;;;26.90;100797.00;;;;10257866;28;20330;-79
2023/08/19 07:54:07;;;;;;;11.57;7.55;;;;;27.30;100797.00;;;;10262018;28;20208;-78
2023/08/19 07:59:10;;;;;;;8.25;7.22;;;;;27.60;100805.00;;;;10260371;28;20752;-78
2023/08/19 08:04:11;;;;;;;12.68;7.57;;;;;27.50;100813.00;;;;10242839;28;21261;-78
2023/08/19 08:09:13;;;;;;;9.80;6.43;;;;;27.20;100818.00;;;;10225883;28;20207;-79
2023/08/19 08:14:14;;;;;;;9.40;6.60;;;;;27.00;100819.00;;;;10262046;28;20203;-78
2023/08/19 08:19:15;;;;;;;8.15;6.60;;;;;27.10;100822.00;;;;10260181;28;22116;-79
2023/08/19 08:24:17;;;;;;;8.00;7.00;;;;;27.40;100845.00;;;;10259983;28;20604;-79
2023/08/19 08:29:18;;;;;;;8.80;6.60;;;;;28.20;100852.00;;;;10260998;28;20295;-78
2023/08/19 08:34:20;;;;;;;9.73;6.60;;;;;28.90;100863.00;;;;10257866;28;20902;-79
2023/08/19 08:39:21;;;;;;;7.03;6.35;;;;;29.30;100886.00;;;;10243331;28;20223;-78
2023/08/19 08:44:26;;;;;;;8.18;6.85;;;;;29.40;100893.00;;;;10240210;28;20340;-79
2023/08/19 08:49:28;;;;;;;8.18;5.82;;;;;28.90;100899.00;;;;10258579;28;20199;-78
2023/08/19 08:54:31;;;;;;;8.02;5.35;;;;;28.30;100915.00;;;;10260233;28;21482;-79
2023/08/19 08:59:32;;;;;;;7.05;4.90;;;;;27.90;100926.00;;;;10241601;28;21452;-79
2023/08/19 09:04:34;;;;;;;8.23;4.90;;;;;28.40;100922.00;;;;10241788;28;20285;-79
2023/08/19 09:09:39;;;;;;;6.53;5.35;;;;;29.00;100933.00;;;;10260149;28;20346;-79
2023/08/19 09:14:44;;;;;;;5.97;4.85;;;;;29.50;100946.00;;;;10258761;28;20216;-78
2023/08/19 09:19:46;;;;;;;6.95;5.35;;;;;29.30;100948.00;;;;10263374;28;20568;-79
2023/08/19 09:24:48;;;;;;;6.72;5.45;;;;;29.50;100951.00;;;;10246710;28;20231;-79
2023/08/19 09:29:53;;;;;;;7.00;5.18;;;;;29.50;100955.00;;;;10245793;28;20211;-79
2023/08/19 09:35:06;;;;;;;7.55;6.05;;;;;29.10;100966.00;;;;10263848;28;20196;-79
2023/08/19 09:40:10;;;;;;;9.25;5.18;;;;;28.80;100977.00;;;;10266214;28;20338;-79
2023/08/19 09:45:17;;;;;;;10.05;5.72;;;;;28.40;100986.00;;;;10262829;28;20350;-78
2023/08/19 09:50:20;;;;;;;9.43;6.32;;;;;28.60;100994.00;;;;10263363;28;20354;-79
2023/08/19 09:55:26;;;;;;;8.75;6.03;;;;;28.70;100999.00;;;;10265020;28;20466;-78
2023/08/19 10:00:27;;;;;;;9.85;6.13;;;;;28.40;100994.00;;;;10247551;28;20670;-78
2023/08/19 10:05:33;;;;;;;7.10;5.40;;;;;28.10;101008.00;;;;10245522;28;21358;-78
2023/08/19 10:10:39;;;;;;;6.65;5.97;;;;;27.60;101026.00;;;;10263366;28;20906;-78
2023/08/19 10:15:41;;;;;;;6.00;5.40;;;;;27.30;101022.00;;;;10246429;28;20638;-79
2023/08/19 10:20:55;;;;;;;7.88;5.53;;;;;26.90;101021.00;;;;10263812;28;20393;-79
2023/08/19 10:25:58;;;;;;;7.28;5.80;;;;;27.00;101029.00;;;;10261801;28;22105;-78
2023/08/19 10:31:13;;;;;;;7.38;5.95;;;;;27.00;101037.00;;;;10260580;28;20206;-79
2023/08/19 10:36:16;;;;;;;9.48;5.60;;;;;26.70;101058.00;;;;10263765;28;21983;-78
2023/08/19 10:41:33;;;;;;;10.45;5.30;;;;;26.30;101068.00;;;;10262245;28;20210;-78
2023/08/19 10:46:38;;;;;;;7.60;5.40;;;;;26.10;101125.00;;;;10257049;28;20227;-78
2023/08/19 10:51:51;;;;;;;8.55;6.00;;;;;26.00;101156.00;;;;10264630;28;20226;-78
2023/08/19 10:57:16;;;;;;;9.15;5.95;;;;;26.40;101155.00;;;;10264176;28;20210;-78
2023/08/19 11:02:17;;;;;;;9.15;5.60;;;;;26.70;101131.00;;;;10261164;28;22036;-79
2023/08/19 11:07:19;;;;;;;7.43;5.05;;;;;27.20;101139.00;;;;10261743;28;20898;-78
2023/08/19 11:12:22;;;;;;;8.73;4.55;;;;;28.40;101158.00;;;;10263036;28;20207;-79
2023/08/19 11:17:31;;;;;;;6.40;4.97;;;;;29.00;101102.00;;;;10261397;28;20565;-79
2023/08/19 11:22:41;;;;;;;4.20;3.80;;;;;29.70;101123.00;;;;10260421;28;20644;-78
2023/08/19 11:27:42;;;;;;;4.75;3.53;;;;;29.10;101138.00;;;;10240367;28;20628;-79
2023/08/19 11:32:47;;;;;;;7.35;4.25;;;;;28.80;101181.00;;;;10243516;28;20204;-79
2023/08/19 11:37:48;;;;;;;6.00;4.05;;;;;28.00;101184.00;;;;10261674;28;20204;-79
2023/08/19 11:42:50;;;;;;;5.35;3.58;;;;;27.50;101177.00;;;;10242317;28;20334;-78
2023/08/19 11:47:51;;;;;;;4.80;3.38;;;;;27.00;101181.00;;;;10261075;28;20231;-78
2023/08/19 11:52:53;;;;;;;5.55;3.30;;;;;26.40;101170.00;;;;10262412;28;20301;-78
2023/08/19 11:57:54;;;;;;;3.53;2.97;;;;;26.00;101192.00;;;;10260002;28;20543;-78
2023/08/19 12:02:57;;;;;;;7.53;3.38;;;;;25.90;101186.00;;;;10257541;28;20207;-78
2023/08/19 12:07:58;;;;;;;5.43;2.42;;;;;25.80;101187.00;;;;10260209;28;20235;-78
2023/08/19 12:13:00;;;;;;;4.78;3.05;;;;;25.50;101215.00;;;;10258622;28;20578;-79
2023/08/19 12:18:01;;;;;;;4.88;3.10;;;;;25.10;101200.00;;;;10259980;28;20828;-78
2023/08/19 12:23:03;;;;;;;5.18;3.35;;;;;24.80;101225.00;;;;10225695;28;20208;-78
2023/08/19 12:28:04;;;;;;;4.22;3.10;;;;;24.80;101240.00;;;;10259061;28;20233;-78
2023/08/19 12:33:05;;;;;;;5.93;3.65;;;;;24.80;101241.00;;;;10262569;28;20211;-78
2023/08/19 12:38:08;;;;;;;6.65;4.03;;;;;24.80;101244.00;;;;10242114;28;20204;-78
2023/08/19 12:43:13;;;;;;;7.35;3.70;;;;;25.10;101238.00;;;;10257707;28;20220;-78
2023/08/19 12:48:14;;;;;;;4.93;2.75;;;;;25.50;101257.00;;;;10243081;28;20297;-78
2023/08/19 12:53:15;;;;;;;6.13;2.53;;;;;25.60;101243.00;;;;10214519;28;20219;-78
2023/08/19 12:58:16;;;;;;;6.30;2.50;;;;;25.80;101276.00;;;;10263338;28;20511;-79
2023/08/19 13:03:18;;;;;;;5.10;2.40;;;;;25.90;101261.00;;;;10264844;28;20670;-78
2023/08/19 13:08:20;;;;;;;8.35;2.30;;;;;26.00;101281.00;;;;10265280;28;20305;-78
2023/08/19 13:13:21;;;;;;;5.18;2.70;;;;;26.30;101255.00;;;;10264760;28;20640;-79
2023/08/19 13:18:22;;;;;;;6.40;2.20;;;;;28.20;101249.00;;;;10262992;28;20199;-78
2023/08/19 13:23:23;;;;;;;5.18;2.05;;;;;29.10;101253.00;;;;10262194;28;20210;-79
2023/08/19 13:28:25;;;;;;;5.60;2.38;;;;;30.10;101256.00;;;;10262617;28;20556;-79
2023/08/19 13:33:26;;;;;;;5.97;2.38;;;;;30.40;101255.00;;;;10262462;28;20852;-79
2023/08/19 13:38:27;;;;;;;3.72;2.00;;;;;30.20;101262.00;;;;10261290;28;20254;-79
2023/08/19 13:43:28;;;;;;;6.22;2.55;;;;;28.60;101266.00;;;;10263248;28;20203;-79
2023/08/19 13:48:30;;;;;;;6.53;2.58;;;;;28.80;101265.00;;;;10247264;28;20330;-78
2023/08/19 13:53:31;;;;;;;5.05;2.05;;;;;29.50;101284.00;;;;10261141;28;20195;-79
2023/08/19 13:58:33;;;;;;;5.05;2.42;;;;;30.30;101284.00;;;;10261356;28;20199;-79
2023/08/19 14:03:34;;;;;;;5.05;2.20;;;;;31.20;101274.00;;;;10263894;28;20211;-79
2023/08/19 14:08:36;;;;;;;6.45;2.70;;;;;30.70;101295.00;;;;10244426;28;20592;-80
2023/08/19 14:13:39;;;;;;;3.13;1.88;;;;;30.20;101277.00;;;;10263799;28;21416;-79
2023/08/19 14:18:40;;;;;;;3.47;2.47;;;;;29.80;101279.00;;;;10262052;28;20839;-79
2023/08/19 14:23:43;;;;;;;5.35;2.60;;;;;30.10;101276.00;;;;10261308;28;20207;-79
2023/08/19 14:28:44;;;;;;;4.43;2.33;;;;;30.60;101278.00;;;;10262378;28;20727;-79
2023/08/19 14:33:45;;;;;;;4.70;2.47;;;;;30.60;101280.00;;;;10262393;28;21319;-80
2023/08/19 14:38:47;;;;;;;5.00;2.45;;;;;32.00;101260.00;;;;10259818;28;20511;-79
2023/08/19 14:43:48;;;;;;;6.05;2.70;;;;;33.10;101252.00;;;;10261594;28;20203;-79
2023/08/19 14:48:49;;;;;;;4.55;2.30;;;;;35.30;101250.00;;;;10262119;28;20216;-78
2023/08/19 14:53:51;;;;;;;6.10;2.20;;;;;35.10;101264.00;;;;10259601;28;20219;-79
2023/08/19 14:58:52;;;;;;;4.32;2.20;;;;;32.00;101280.00;;;;10257768;28;20211;-79
2023/08/19 15:03:54;;;;;;;6.88;3.60;;;;;29.30;101280.00;;;;10261283;28;20195;-80
2023/08/19 15:08:55;;;;;;;12.00;8.18;;;;;28.90;101267.00;;;;10263074;28;20212;-79
2023/08/19 15:13:57;;;;;;;6.10;3.28;;;;;28.10;101259.00;;;;10260704;28;20207;-79
2023/08/19 15:18:58;;;;;;;5.45;3.13;;;;;28.10;101258.00;;;;10260334;28;21475;-79
2023/08/19 15:24:03;;;;;;;4.30;1.60;;;;;27.60;101272.00;;;;10262045;28;20211;-79
2023/08/19 15:29:05;;;;;;;5.50;2.30;;;;;27.20;101277.00;;;;10261189;28;20207;-79
2023/08/19 15:34:06;;;;;;;4.80;2.13;;;;;26.80;101276.00;;;;10260917;28;20211;-78
2023/08/19 15:39:08;;;;;;;7.38;2.30;;;;;26.90;101274.00;;;;10245149;28;20298;-79
2023/08/19 15:44:10;;;;;;;4.68;1.90;;;;;26.60;101286.00;;;;10260186;28;20208;-79
2023/08/19 15:49:11;;;;;;;7.28;3.08;;;;;26.60;101277.00;;;;10259393;28;20561;-79
2023/08/19 15:54:12;;;;;;;5.07;3.40;;;;;26.30;101278.00;;;;10258201;28;20203;-79
2023/08/19 15:59:14;;;;;;;3.67;1.90;;;;;26.20;101285.00;;;;10259743;28;20329;-79
2023/08/19 16:04:15;;;;;;;3.78;1.90;;;;;26.10;101283.00;;;;10258691;28;20341;-79
2023/08/19 16:09:16;;;;;;;5.63;2.25;;;;;26.00;101287.00;;;;10259672;28;20582;-78
2023/08/19 16:14:18;;;;;;;5.05;2.05;;;;;25.80;101293.00;;;;10242207;28;20585;-79
2023/08/19 16:19:19;;;;;;;3.00;1.50;;;;;25.80;101301.00;;;;10259159;28;20903;-79
2023/08/19 16:24:20;;;;;;;4.40;2.47;;;;;25.80;101290.00;;;;10257524;28;20522;-79
2023/08/19 16:29:22;;;;;;;3.20;1.92;;;;;25.80;101290.00;;;;10248732;28;21568;-79
2023/08/19 16:34:23;;;;;;;4.63;2.25;;;;;25.80;101290.00;;;;10268265;28;20203;-78
2023/08/19 16:39:25;;;;;;;5.60;2.35;;;;;25.80;101294.00;;;;10265123;28;20776;-79
2023/08/19 16:44:26;;;;;;;6.63;3.65;;;;;25.60;101296.00;;;;10248874;28;20230;-78
2023/08/19 16:49:27;;;;;;;2.50;1.48;;;;;25.70;101301.00;;;;10267499;28;20402;-78
2023/08/19 16:54:29;;;;;;;4.93;1.80;;;;;25.60;101301.00;;;;10265127;28;20230;-78
2023/08/19 16:59:30;;;;;;;6.90;1.70;;;;;25.40;101295.00;;;;10266351;28;20222;-79
2023/08/19 17:04:31;;;;;;;3.35;2.38;;;;;25.20;101302.00;;;;10267144;28;21553;-79
2023/08/19 17:09:33;;;;;;;2.42;1.42;;;;;25.10;101304.00;;;;10250148;28;20648;-79
2023/08/19 17:14:36;;;;;;;3.63;1.80;;;;;25.10;101304.00;;;;10248496;28;20934;-78
2023/08/19 17:19:37;;;;;;;3.58;1.80;;;;;25.20;101308.00;;;;10265031;28;20413;-78
2023/08/19 17:24:38;;;;;;;3.92;1.60;;;;;25.20;101304.00;;;;10250456;28;20255;-79
2023/08/19 17:29:39;;;;;;;2.42;1.40;;;;;25.20;101304.00;;;;10267788;28;20922;-79
2023/08/19 17:34:40;;;;;;;3.33;1.30;;;;;25.10;101313.00;;;;10263689;28;20697;-78
2023/08/19 17:39:42;;;;;;;2.72;1.52;;;;;24.80;101318.00;;;;10263705;28;21722;-79
2023/08/19 17:44:50;;;;;;;3.20;1.48;;;;;24.70;101320.00;;;;10247439;28;20223;-78
2023/08/19 17:49:52;;;;;;;4.18;1.85;;;;;24.80;101336.00;;;;10264889;28;20659;-78
2023/08/19 17:54:54;;;;;;;4.07;1.70;;;;;24.70;101327.00;;;;10247711;28;20210;-78
2023/08/19 17:59:55;;;;;;;3.53;1.80;;;;;24.70;101330.00;;;;10247108;28;20217;-77
2023/08/19 18:04:57;;;;;;;2.67;1.38;;;;;24.60;101319.00;;;;10264518;28;20694;-78
2023/08/19 18:10:00;;;;;;;3.13;1.63;;;;;24.50;101323.00;;;;10246082;28;20208;-79
2023/08/19 18:15:02;;;;;;;3.70;1.60;;;;;24.40;101326.00;;;;10246175;28;20196;-78
2023/08/19 18:20:05;;;;;;;4.57;1.80;;;;;24.20;101325.00;;;;10231144;28;20297;-78
2023/08/19 18:25:06;;;;;;;3.17;1.90;;;;;24.00;101329.00;;;;10229059;28;20430;-78
2023/08/19 18:30:09;;;;;;;5.05;1.65;;;;;23.70;101335.00;;;;10262553;28;20211;-78
2023/08/19 18:35:11;;;;;;;2.65;1.63;;;;;23.40;101335.00;;;;10265372;28;20512;-78
2023/08/19 18:40:14;;;;;;;6.18;2.25;;;;;23.10;101336.00;;;;10246708;28;20478;-78
2023/08/19 18:45:15;;;;;;;2.97;1.90;;;;;22.90;101342.00;;;;10244837;28;20223;-78
2023/08/19 18:50:17;;;;;;;4.60;2.15;;;;;22.60;101346.00;;;;10262333;28;20345;-78
2023/08/19 18:55:18;;;;;;;2.83;2.30;;;;;22.50;101350.00;;;;10262026;28;21539;-77
2023/08/19 19:00:19;;;;;;;4.32;2.53;;;;;22.30;101360.00;;;;10259285;28;21483;-78
2023/08/19 19:05:21;;;;;;;4.28;2.20;;;;;22.10;101351.00;;;;10260913;28;20223;-78
2023/08/19 19:10:23;;;;;;;4.45;2.33;;;;;21.90;101359.00;;;;10260233;28;20207;-78
2023/08/19 19:15:24;;;;;;;4.03;2.20;;;;;21.70;101363.00;;;;10226570;28;20365;-77
2023/08/19 19:20:27;;;;;;;3.17;2.20;;;;;21.50;101372.00;;;;10241558;28;20692;-78
2023/08/19 19:25:28;;;;;;;6.78;2.53;;;;;21.30;101372.00;;;;10241731;28;21066;-78
2023/08/19 19:30:29;;;;;;;12.20;2.97;;;;;21.10;101380.00;;;;10258971;28;21918;-77
2023/08/19 19:35:31;;;;;;;9.07;3.13;;;;;21.10;101394.00;;;;10256211;28;20266;-77
2023/08/19 19:40:32;;;;;;;17.48;3.35;;;;;21.10;101396.00;;;;10241003;28;20724;-77
2023/08/19 19:45:33;;;;;;;6.47;2.53;;;;;21.00;101420.00;;;;10256629;28;20251;-77
2023/08/19 19:50:34;;;;;;;3.38;2.40;;;;;20.90;101429.00;;;;10256964;28;21772;-78
2023/08/19 19:55:36;;;;;;;3.35;2.50;;;;;20.80;101435.00;;;;10255666;28;21296;-77
2023/08/19 20:00:38;;;;;;;8.15;4.28;;;;;20.90;101446.00;;;;10256816;28;20298;-78
2023/08/19 20:05:39;;;;;;;8.90;4.07;;;;;20.70;101457.00;;;;10257026;28;20317;-77
2023/08/19 20:10:40;;;;;;;8.52;3.10;;;;;20.50;101459.00;;;;10239945;28;20211;-77
2023/08/19 20:15:42;;;;;;;8.77;2.95;;;;;20.40;101466.00;;;;10237459;28;20226;-77
2023/08/19 20:20:43;;;;;;;6.70;2.88;;;;;20.50;101481.00;;;;10255398;28;20230;-77
2023/08/19 20:25:44;;;;;;;7.82;3.22;;;;;20.50;101495.00;;;;10238093;28;20447;-77
2023/08/19 20:30:46;;;;;;;13.50;2.80;;;;;20.60;101496.00;;;;10255905;28;20235;-77
2023/08/19 20:35:50;;;;;;;14.65;3.40;;;;;20.50;101499.00;;;;10255333;28;20640;-77
2023/08/19 20:40:55;;;;;;;12.63;3.10;;;;;20.40;101508.00;;;;10240050;28;20669;-78
2023/08/19 20:45:56;;;;;;;7.97;2.38;;;;;20.20;101508.00;;;;10255981;28;20219;-77
2023/08/19 20:50:57;;;;;;;9.43;3.05;;;;;20.10;101525.00;;;;10256637;28;20286;-78
2023/08/19 20:55:59;;;;;;;8.05;2.50;;;;;20.00;101527.00;;;;10256801;28;20204;-77
2023/08/19 21:01:00;;;;;;;10.80;2.90;;;;;20.00;101532.00;;;;10253482;28;20286;-77
2023/08/19 21:06:04;;;;;;;10.55;2.63;;;;;19.90;101524.00;;;;10252587;28;20238;-77
2023/08/19 21:11:05;;;;;;;12.15;3.00;;;;;19.80;101531.00;;;;10233278;28;20222;-78
2023/08/19 21:16:06;;;;;;;10.32;2.50;;;;;19.80;101535.00;;;;10260958;28;20652;-77
2023/08/19 21:21:08;;;;;;;13.70;2.80;;;;;19.90;101537.00;;;;10261750;28;20215;-77
2023/08/19 21:26:09;;;;;;;12.90;2.92;;;;;19.90;101534.00;;;;10244746;28;20219;-77
2023/08/19 21:31:10;;;;;;;12.07;3.15;;;;;19.90;101535.00;;;;10244434;28;21022;-76
2023/08/19 21:36:11;;;;;;;8.88;2.47;;;;;19.80;101541.00;;;;10245696;28;20230;-77
2023/08/19 21:41:13;;;;;;;8.57;2.67;;;;;19.70;101541.00;;;;10228245;28;20581;-77
2023/08/19 21:46:14;;;;;;;14.57;3.47;;;;;19.60;101538.00;;;;10261229;28;20536;-77
2023/08/19 21:51:17;;;;;;;13.07;2.92;;;;;19.50;101530.00;;;;10263374;28;20223;-78
2023/08/19 21:56:18;;;;;;;11.95;3.15;;;;;19.30;101535.00;;;;10262584;28;20334;-77
2023/08/19 22:01:19;;;;;;;13.90;3.45;;;;;19.10;101539.00;;;;10242897;28;20223;-77
2023/08/19 22:06:21;;;;;;;11.95;3.30;;;;;18.90;101534.00;;;;10259223;28;21068;-77
2023/08/19 22:11:22;;;;;;;8.55;3.10;;;;;18.90;101529.00;;;;10259706;28;20207;-77
2023/08/19 22:16:24;;;;;;;15.38;2.80;;;;;18.70;101535.00;;;;10261294;28;20408;-78
2023/08/19 22:21:25;;;;;;;10.82;2.97;;;;;18.60;101536.00;;;;10209317;28;20501;-77
2023/08/19 22:26:26;;;;;;;9.80;2.80;;;;;18.50;101549.00;;;;10240849;28;20292;-77
2023/08/19 22:31:28;;;;;;;12.40;3.53;;;;;18.40;101554.00;;;;10229637;28;20232;-77
2023/08/19 22:36:29;;;;;;;12.68;3.28;;;;;18.30;101563.00;;;;10257835;28;20936;-77
2023/08/19 22:41:31;;;;;;;10.10;2.70;;;;;18.20;101560.00;;;;10241030;28;20397;-77
2023/08/19 22:46:32;;;;;;;13.65;3.15;;;;;18.30;101561.00;;;;10242988;28;20304;-77
2023/08/19 22:51:33;;;;;;;10.50;3.10;;;;;18.30;101558.00;;;;10242718;28;20285;-78
2023/08/19 22:56:35;;;;;;;13.48;3.35;;;;;18.40;101557.00;;;;10256220;28;20209;-77
2023/08/19 23:01:36;;;;;;;10.65;3.45;;;;;18.50;101578.00;;;;10240466;28;20211;-77
2023/08/19 23:06:38;;;;;;;11.65;3.33;;;;;18.60;101574.00;;;;10242425;28;21262;-77
2023/08/19 23:11:39;;;;;;;13.27;3.78;;;;;18.60;101578.00;;;;10242555;28;21635;-77
2023/08/19 23:16:41;;;;;;;11.57;2.70;;;;;18.60;101576.00;;;;10243366;28;20215;-78
2023/08/19 23:21:42;;;;;;;6.47;3.00;;;;;18.70;101545.00;;;;10259341;28;20199;-77
2023/08/19 23:26:47;;;;;;;13.05;3.17;;;;;18.60;101543.00;;;;10260229;28;20743;-77
2023/08/19 23:31:49;;;;;;;12.93;3.05;;;;;18.50;101546.00;;;;10260719;28;20212;-77
2023/08/19 23:36:51;;;;;;;11.60;2.88;;;;;18.30;101537.00;;;;10239615;28;20762;-77
2023/08/19 23:41:52;;;;;;;10.73;2.70;;;;;18.20;101540.00;;;;10258505;28;20210;-77
2023/08/19 23:46:54;;;;;;;10.45;3.20;;;;;18.00;101549.00;;;;10259319;28;20751;-77
2023/08/19 23:51:57;;;;;;;10.48;3.05;;;;;17.90;101550.00;;;;10257179;28;20231;-77
2023/08/19 23:56:59;;;;;;;12.45;3.13;;;;;17.80;101549.00;;;;10240781;28;20269;-77
